sensor_id;sensor_type;location;lat;lon;timestamp;pressure;altitude;pressure_sealevel;temperature;humidity
49515;BME280;35415;47.870;16.058;2022-11-15T00:00:03;97546.38;;;5.47;100.00
49515;BME280;35415;47.870;16.058;2022-11-15T00:02:32;97559.53;;;5.60;100.00
49515;BME280;35415;47.870;16.058;2022-11-15T00:04:59;97558.25;;;5.63;100.00
49515;BME280;35415;47.870;16.058;2022-11-15T00:07:26;97552.69;;;5.64;100.00
49515;BME280;35415;47.870;16.058;2022-11-15T00:09:53;97544.66;;;5.64;100.00
49515;BME280;35415;47.870;16.058;2022-11-15T00:12:20;97551.06;;;5.63;100.00
49515;BME280;35415;47.870;16.058;2022-11-15T00:14:47;97553.13;;;5.61;100.00
49515;BME280;35415;47.870;16.058;2022-11-15T00:17:14;97543.50;;;5.60;100.00
49515;BME280;35415;47.870;16.058;2022-11-15T00:19:43;97538.41;;;5.59;100.00
49515;BME280;35415;47.870;16.058;2022-11-15T00:22:10;97538.41;;;5.59;100.00
49515;BME280;35415;47.870;16.058;2022-11-15T00:24:38;97541.31;;;5.57;100.00
49515;BME280;35415;47.870;16.058;2022-11-15T00:27:05;97533.16;;;5.52;100.00
49515;BME280;35415;47.870;16.058;2022-11-15T00:29:32;97500.16;;;5.23;100.00
49515;BME280;35415;47.870;16.058;2022-11-15T00:31:59;97533.97;;;5.53;100.00
49515;BME280;35415;47.870;16.058;2022-11-15T00:34:25;97531.53;;;5.51;100.00
49515;BME280;35415;47.870;16.058;2022-11-15T00:36:54;97529.09;;;5.50;100.00
49515;BME280;35415;47.870;16.058;2022-11-15T00:39:21;97532.22;;;5.47;100.00
49515;BME280;35415;47.870;16.058;2022-11-15T00:41:48;97528.38;;;5.42;100.00
49515;BME280;35415;47.870;16.058;2022-11-15T00:44:15;97527.56;;;5.42;100.00
49515;BME280;35415;47.870;16.058;2022-11-15T00:46:42;97503.63;;;5.24;100.00
49515;BME280;35415;47.870;16.058;2022-11-15T00:49:09;97524.56;;;5.38;100.00
49515;BME280;35415;47.870;16.058;2022-11-15T00:51:36;97484.09;;;5.11;100.00
49515;BME280;35415;47.870;16.058;2022-11-15T00:54:05;97510.47;;;5.31;100.00
49515;BME280;35415;47.870;16.058;2022-11-15T00:56:32;97509.66;;;5.31;100.00
49515;BME280;35415;47.870;16.058;2022-11-15T00:58:59;97510.72;;;5.30;100.00
49515;BME280;35415;47.870;16.058;2022-11-15T01:01:26;97506.66;;;5.27;100.00
49515;BME280;35415;47.870;16.058;2022-11-15T01:03:53;97496.22;;;5.26;100.00
49515;BME280;35415;47.870;16.058;2022-11-15T01:06:20;97503.41;;;5.25;100.00
49515;BME280;35415;47.870;16.058;2022-11-15T01:08:47;97493.78;;;5.24;100.00
49515;BME280;35415;47.870;16.058;2022-11-15T01:11:15;97485.63;;;5.19;100.00
49515;BME280;35415;47.870;16.058;2022-11-15T01:13:42;97491.94;;;5.25;100.00
49515;BME280;35415;47.870;16.058;2022-11-15T01:16:12;97487.06;;;5.22;100.00
49515;BME280;35415;47.870;16.058;2022-11-15T01:18:39;97492.72;;;5.25;100.00
49515;BME280;35415;47.870;16.058;2022-11-15T01:21:08;97492.50;;;5.27;100.00
49515;BME280;35415;47.870;16.058;2022-11-15T01:23:35;97492.28;;;5.28;100.00
49515;BME280;35415;47.870;16.058;2022-11-15T01:26:05;97482.19;;;5.30;100.00
49515;BME280;35415;47.870;16.058;2022-11-15T01:28:37;97462.25;;;5.21;100.00
49515;BME280;35415;47.870;16.058;2022-11-15T01:31:07;97484.41;;;5.33;100.00
49515;BME280;35415;47.870;16.058;2022-11-15T01:33:36;97473.38;;;5.30;100.00
49515;BME280;35415;47.870;16.058;2022-11-15T01:36:04;97478.59;;;5.36;100.00
49515;BME280;35415;47.870;16.058;2022-11-15T01:38:31;97471.06;;;5.33;100.00
49515;BME280;35415;47.870;16.058;2022-11-15T01:40:58;97469.09;;;5.29;100.00
49515;BME280;35415;47.870;16.058;2022-11-15T01:43:28;97468.16;;;5.35;100.00
49515;BME280;35415;47.870;16.058;2022-11-15T01:46:00;97476.38;;;5.33;100.00
49515;BME280;35415;47.870;16.058;2022-11-15T01:48:32;97450.53;;;5.22;100.00
49515;BME280;35415;47.870;16.058;2022-11-15T01:51:02;97430.78;;;5.11;100.00
49515;BME280;35415;47.870;16.058;2022-11-15T01:53:31;97451.69;;;5.26;100.00
49515;BME280;35415;47.870;16.058;2022-11-15T01:56:01;97452.72;;;5.25;100.00
49515;BME280;35415;47.870;16.058;2022-11-15T01:58:29;97453.78;;;5.24;100.00
49515;BME280;35415;47.870;16.058;2022-11-15T02:00:58;97455.63;;;5.24;100.00
49515;BME280;35415;47.870;16.058;2022-11-15T02:03:33;97451.34;;;5.23;100.00
49515;BME280;35415;47.870;16.058;2022-11-15T02:06:03;97452.16;;;5.23;100.00
49515;BME280;35415;47.870;16.058;2022-11-15T02:08:31;97446.44;;;5.20;100.00
49515;BME280;35415;47.870;16.058;2022-11-15T02:10:58;97460.97;;;5.24;100.00
49515;BME280;35415;47.870;16.058;2022-11-15T02:13:25;97462.59;;;5.25;100.00
49515;BME280;35415;47.870;16.058;2022-11-15T02:16:02;97457.25;;;5.25;100.00
49515;BME280;35415;47.870;16.058;2022-11-15T02:18:34;97441.09;;;5.20;100.00
49515;BME280;35415;47.870;16.058;2022-11-15T02:21:11;97447.06;;;5.22;100.00
49515;BME280;35415;47.870;16.058;2022-11-15T02:24:11;97452.72;;;5.25;100.00
49515;BME280;35415;47.870;16.058;2022-11-15T02:29:49;97448.91;;;5.21;100.00
49515;BME280;35415;47.870;16.058;2022-11-15T02:32:30;97440.88;;;5.09;100.00
49515;BME280;35415;47.870;16.058;2022-11-15T02:35:09;97391.81;;;4.69;100.00
49515;BME280;35415;47.870;16.058;2022-11-15T02:37:44;97448.94;;;5.03;100.00
49515;BME280;35415;47.870;16.058;2022-11-15T02:40:20;97464.97;;;5.14;100.00
49515;BME280;35415;47.870;16.058;2022-11-15T02:42:54;97464.16;;;5.14;100.00
49515;BME280;35415;47.870;16.058;2022-11-15T02:45:42;97459.88;;;5.13;100.00
49515;BME280;35415;47.870;16.058;2022-11-15T02:48:15;97452.69;;;5.13;100.00
49515;BME280;35415;47.870;16.058;2022-11-15T02:50:43;97450.03;;;5.13;100.00
49515;BME280;35415;47.870;16.058;2022-11-15T02:53:10;97428.66;;;5.02;100.00
49515;BME280;35415;47.870;16.058;2022-11-15T02:55:39;97454.31;;;5.14;100.00
49515;BME280;35415;47.870;16.058;2022-11-15T02:58:26;97444.81;;;5.19;100.00
49515;BME280;35415;47.870;16.058;2022-11-15T03:01:00;97431.59;;;5.12;100.00
49515;BME280;35415;47.870;16.058;2022-11-15T03:03:46;97446.81;;;5.23;100.00
49515;BME280;35415;47.870;16.058;2022-11-15T03:06:23;97447.63;;;5.24;100.00
49515;BME280;35415;47.870;16.058;2022-11-15T03:09:00;97438.81;;;5.23;100.00
49515;BME280;35415;47.870;16.058;2022-11-15T03:11:29;97383.19;;;4.85;100.00
49515;BME280;35415;47.870;16.058;2022-11-15T03:14:01;97421.84;;;5.18;100.00
49515;BME280;35415;47.870;16.058;2022-11-15T03:16:36;97421.53;;;5.26;100.00
49515;BME280;35415;47.870;16.058;2022-11-15T03:19:12;97423.63;;;5.24;100.00
49515;BME280;35415;47.870;16.058;2022-11-15T03:21:41;97412.44;;;5.03;100.00
49515;BME280;35415;47.870;16.058;2022-11-15T03:24:08;97426.53;;;5.22;100.00
49515;BME280;35415;47.870;16.058;2022-11-15T03:26:40;97417.09;;;5.20;100.00
49515;BME280;35415;47.870;16.058;2022-11-15T03:29:11;97422.44;;;5.20;100.00
49515;BME280;35415;47.870;16.058;2022-11-15T03:31:43;97425.34;;;5.18;100.00
49515;BME280;35415;47.870;16.058;2022-11-15T03:34:20;97422.66;;;5.18;100.00
49515;BME280;35415;47.870;16.058;2022-11-15T03:36:51;97422.91;;;5.17;100.00
49515;BME280;35415;47.870;16.058;2022-11-15T03:39:20;97422.91;;;5.17;100.00
49515;BME280;35415;47.870;16.058;2022-11-15T03:41:52;97412.59;;;5.08;100.00
49515;BME280;35415;47.870;16.058;2022-11-15T03:44:34;97419.19;;;5.18;100.00
49515;BME280;35415;47.870;16.058;2022-11-15T03:47:07;97413.84;;;5.18;100.00
49515;BME280;35415;47.870;16.058;2022-11-15T03:49:42;97408.41;;;5.12;100.00
49515;BME280;35415;47.870;16.058;2022-11-15T03:52:11;97407.72;;;5.17;100.00
49515;BME280;35415;47.870;16.058;2022-11-15T03:54:48;97357.47;;;4.79;100.00
49515;BME280;35415;47.870;16.058;2022-11-15T03:57:15;97406.91;;;5.17;100.00
49515;BME280;35415;47.870;16.058;2022-11-15T03:59:42;97379.75;;;4.96;100.00
49515;BME280;35415;47.870;16.058;2022-11-15T04:02:09;97401.00;;;5.14;100.00
49515;BME280;35415;47.870;16.058;2022-11-15T04:04:37;97403.88;;;5.13;100.00
49515;BME280;35415;47.870;16.058;2022-11-15T04:07:04;97403.09;;;5.12;100.00
49515;BME280;35415;47.870;16.058;2022-11-15T04:09:32;97403.31;;;5.11;100.00
49515;BME280;35415;47.870;16.058;2022-11-15T04:11:59;97401.47;;;5.11;100.00
49515;BME280;35415;47.870;16.058;2022-11-15T04:14:26;97393.69;;;5.10;100.00
49515;BME280;35415;47.870;16.058;2022-11-15T04:16:52;97388.94;;;5.12;100.00
49515;BME280;35415;47.870;16.058;2022-11-15T04:19:19;97390.31;;;5.14;100.00
49515;BME280;35415;47.870;16.058;2022-11-15T04:22:07;97388.25;;;5.17;100.00
49515;BME280;35415;47.870;16.058;2022-11-15T04:24:52;97392.53;;;5.18;100.00
49515;BME280;35415;47.870;16.058;2022-11-15T04:27:19;97378.97;;;5.19;100.00
49515;BME280;35415;47.870;16.058;2022-11-15T04:29:46;97372.00;;;5.18;100.00
49515;BME280;35415;47.870;16.058;2022-11-15T04:32:13;97362.50;;;5.10;100.00
49515;BME280;35415;47.870;16.058;2022-11-15T04:34:40;97371.91;;;5.25;100.00
49515;BME280;35415;47.870;16.058;2022-11-15T04:37:08;97379.69;;;5.26;100.00
49515;BME280;35415;47.870;16.058;2022-11-15T04:39:38;97372.25;;;5.28;100.00
49515;BME280;35415;47.870;16.058;2022-11-15T04:42:06;97367.75;;;5.29;100.00
49515;BME280;35415;47.870;16.058;2022-11-15T04:44:33;97366.47;;;5.31;100.00
49515;BME280;35415;47.870;16.058;2022-11-15T04:47:00;97370.50;;;5.34;100.00
49515;BME280;35415;47.870;16.058;2022-11-15T04:49:27;97363.09;;;5.36;100.00
49515;BME280;35415;47.870;16.058;2022-11-15T04:51:54;97366.56;;;5.36;100.00
49515;BME280;35415;47.870;16.058;2022-11-15T04:54:22;97369.84;;;5.38;100.00
49515;BME280;35415;47.870;16.058;2022-11-15T04:56:49;97365.09;;;5.40;100.00
49515;BME280;35415;47.870;16.058;2022-11-15T04:59:16;97361.38;;;5.41;100.00
49515;BME280;35415;47.870;16.058;2022-11-15T05:01:43;97360.09;;;5.44;100.00
49515;BME280;35415;47.870;16.058;2022-11-15T05:04:10;97355.81;;;5.43;100.00
49515;BME280;35415;47.870;16.058;2022-11-15T05:06:47;97347.56;;;5.44;100.00
49515;BME280;35415;47.870;16.058;2022-11-15T05:09:14;97306.97;;;5.19;100.00
49515;BME280;35415;47.870;16.058;2022-11-15T05:11:43;97338.19;;;5.42;100.00
49515;BME280;35415;47.870;16.058;2022-11-15T05:14:10;97341.75;;;5.48;100.00
49515;BME280;35415;47.870;16.058;2022-11-15T05:16:37;97344.44;;;5.48;100.00
49515;BME280;35415;47.870;16.058;2022-11-15T05:19:05;97316.59;;;5.20;100.00
49515;BME280;35415;47.870;16.058;2022-11-15T05:21:33;97341.66;;;5.42;100.00
49515;BME280;35415;47.870;16.058;2022-11-15T05:24:01;97352.19;;;5.49;100.00
49515;BME280;35415;47.870;16.058;2022-11-15T05:26:28;97345.81;;;5.50;100.00
49515;BME280;35415;47.870;16.058;2022-11-15T05:28:57;97332.47;;;5.50;100.00
49515;BME280;35415;47.870;16.058;2022-11-15T05:31:26;97337.56;;;5.52;100.00
49515;BME280;35415;47.870;16.058;2022-11-15T05:33:54;97331.91;;;5.48;100.00
49515;BME280;35415;47.870;16.058;2022-11-15T05:36:27;97330.16;;;5.54;100.00
49515;BME280;35415;47.870;16.058;2022-11-15T05:38:56;97332.00;;;5.53;100.00
49515;BME280;35415;47.870;16.058;2022-11-15T05:41:27;97326.66;;;5.53;100.00
49515;BME280;35415;47.870;16.058;2022-11-15T05:44:00;97324.22;;;5.52;100.00
49515;BME280;35415;47.870;16.058;2022-11-15T05:46:28;97333.28;;;5.51;100.00
49515;BME280;35415;47.870;16.058;2022-11-15T05:48:56;97315.31;;;5.34;100.00
49515;BME280;35415;47.870;16.058;2022-11-15T05:51:24;97339.66;;;5.50;100.00
49515;BME280;35415;47.870;16.058;2022-11-15T05:53:52;97332.47;;;5.50;100.00
49515;BME280;35415;47.870;16.058;2022-11-15T05:56:21;97319.28;;;5.43;100.00
49515;BME280;35415;47.870;16.058;2022-11-15T05:58:48;97331.91;;;5.48;100.00
49515;BME280;35415;47.870;16.058;2022-11-15T06:01:17;97335.63;;;5.47;100.00
49515;BME280;35415;47.870;16.058;2022-11-15T06:03:44;97335.84;;;5.46;100.00
49515;BME280;35415;47.870;16.058;2022-11-15T06:06:11;97346.53;;;5.46;100.00
49515;BME280;35415;47.870;16.058;2022-11-15T06:08:38;97336.09;;;5.44;100.00
49515;BME280;35415;47.870;16.058;2022-11-15T06:11:06;97343.28;;;5.43;100.00
49515;BME280;35415;47.870;16.058;2022-11-15T06:13:33;97344.31;;;5.42;100.00
49515;BME280;35415;47.870;16.058;2022-11-15T06:16:01;97348.84;;;5.42;100.00
49515;BME280;35415;47.870;16.058;2022-11-15T06:18:31;97347.47;;;5.39;100.00
49515;BME280;35415;47.870;16.058;2022-11-15T06:20:59;97347.69;;;5.38;100.00
49515;BME280;35415;47.870;16.058;2022-11-15T06:23:27;97333.19;;;5.34;100.00
49515;BME280;35415;47.870;16.058;2022-11-15T06:25:57;97330.50;;;5.34;100.00
49515;BME280;35415;47.870;16.058;2022-11-15T06:28:24;97331.31;;;5.34;100.00
49515;BME280;35415;47.870;16.058;2022-11-15T06:30:51;97337.81;;;5.27;100.00
49515;BME280;35415;47.870;16.058;2022-11-15T06:33:18;97325.63;;;5.19;100.00
49515;BME280;35415;47.870;16.058;2022-11-15T06:35:47;97329.00;;;5.26;100.00
49515;BME280;35415;47.870;16.058;2022-11-15T06:38:14;97331.91;;;5.25;100.00
49515;BME280;35415;47.870;16.058;2022-11-15T06:40:41;97332.97;;;5.24;100.00
49515;BME280;35415;47.870;16.058;2022-11-15T06:43:08;97332.38;;;5.22;100.00
49515;BME280;35415;47.870;16.058;2022-11-15T06:45:35;97324.81;;;5.19;100.00
49515;BME280;35415;47.870;16.058;2022-11-15T06:48:02;97330.97;;;5.19;100.00
49515;BME280;35415;47.870;16.058;2022-11-15T06:50:28;97330.16;;;5.19;100.00
49515;BME280;35415;47.870;16.058;2022-11-15T06:53:00;97328.41;;;5.12;100.00
49515;BME280;35415;47.870;16.058;2022-11-15T06:55:28;97341.06;;;5.17;100.00
49515;BME280;35415;47.870;16.058;2022-11-15T06:57:55;97332.38;;;5.10;100.00
49515;BME280;35415;47.870;16.058;2022-11-15T07:00:22;97345.00;;;5.14;100.00
49515;BME280;35415;47.870;16.058;2022-11-15T07:02:49;97342.56;;;5.13;100.00
49515;BME280;35415;47.870;16.058;2022-11-15T07:05:16;97335.84;;;5.10;100.00
49515;BME280;35415;47.870;16.058;2022-11-15T07:07:43;97338.50;;;5.10;100.00
49515;BME280;35415;47.870;16.058;2022-11-15T07:10:18;97333.06;;;5.05;100.00
49515;BME280;35415;47.870;16.058;2022-11-15T07:12:47;97340.84;;;5.07;100.00
49515;BME280;35415;47.870;16.058;2022-11-15T07:15:15;97310.78;;;4.88;100.00
49515;BME280;35415;47.870;16.058;2022-11-15T07:17:42;97342.69;;;5.06;100.00
49515;BME280;35415;47.870;16.058;2022-11-15T07:20:10;97345.34;;;5.06;100.00
49515;BME280;35415;47.870;16.058;2022-11-15T07:22:38;97342.09;;;5.04;100.00
49515;BME280;35415;47.870;16.058;2022-11-15T07:25:07;97334.91;;;5.05;100.00
49515;BME280;35415;47.870;16.058;2022-11-15T07:27:35;97334.09;;;5.04;100.00
49515;BME280;35415;47.870;16.058;2022-11-15T07:30:05;97320.41;;;5.01;100.00
49515;BME280;35415;47.870;16.058;2022-11-15T07:32:32;97326.94;;;5.05;100.00
49515;BME280;35415;47.870;16.058;2022-11-15T07:35:02;97326.13;;;5.04;100.00
49515;BME280;35415;47.870;16.058;2022-11-15T07:37:29;97330.63;;;5.04;100.00
49515;BME280;35415;47.870;16.058;2022-11-15T07:39:56;97320.16;;;5.02;100.00
49515;BME280;35415;47.870;16.058;2022-11-15T07:42:24;97338.16;;;5.07;100.00
49515;BME280;35415;47.870;16.058;2022-11-15T07:45:11;97319.38;;;5.02;100.00
49515;BME280;35415;47.870;16.058;2022-11-15T07:47:40;97325.66;;;5.07;100.00
49515;BME280;35415;47.870;16.058;2022-11-15T07:50:08;97327.84;;;5.10;100.00
49515;BME280;35415;47.870;16.058;2022-11-15T07:52:36;97314.25;;;5.00;100.00
49515;BME280;35415;47.870;16.058;2022-11-15T07:55:05;97326.00;;;5.11;100.00
49515;BME280;35415;47.870;16.058;2022-11-15T07:57:32;97325.75;;;5.12;100.00
49515;BME280;35415;47.870;16.058;2022-11-15T08:00:01;97313.72;;;5.10;100.00
49515;BME280;35415;47.870;16.058;2022-11-15T08:02:29;97306.84;;;5.14;100.00
49515;BME280;35415;47.870;16.058;2022-11-15T08:04:57;97322.38;;;5.17;100.00
49515;BME280;35415;47.870;16.058;2022-11-15T08:07:24;97256.91;;;4.74;100.00
49515;BME280;35415;47.870;16.058;2022-11-15T08:09:51;97326.00;;;5.23;100.00
49515;BME280;35415;47.870;16.058;2022-11-15T08:12:18;97318.59;;;5.25;100.00
49515;BME280;35415;47.870;16.058;2022-11-15T08:14:45;97316.50;;;5.27;100.00
49515;BME280;35415;47.870;16.058;2022-11-15T08:17:12;97308.03;;;5.30;100.00
49515;BME280;35415;47.870;16.058;2022-11-15T08:19:40;97301.16;;;5.34;100.00
49515;BME280;35415;47.870;16.058;2022-11-15T08:22:08;97292.59;;;5.32;100.00
49515;BME280;35415;47.870;16.058;2022-11-15T08:24:35;97305.81;;;5.38;100.00
49515;BME280;35415;47.870;16.058;2022-11-15T08:27:02;97305.59;;;5.40;100.00
49515;BME280;35415;47.870;16.058;2022-11-15T08:29:29;97299.69;;;5.38;100.00
49515;BME280;35415;47.870;16.058;2022-11-15T08:31:56;97289.69;;;5.45;100.00
49515;BME280;35415;47.870;16.058;2022-11-15T08:34:23;97297.22;;;5.48;100.00
49515;BME280;35415;47.870;16.058;2022-11-15T08:36:51;97289.56;;;5.52;100.00
49515;BME280;35415;47.870;16.058;2022-11-15T08:39:18;97290.94;;;5.54;100.00
49515;BME280;35415;47.870;16.058;2022-11-15T08:41:46;97290.00;;;5.60;100.00
49515;BME280;35415;47.870;16.058;2022-11-15T08:44:13;97290.13;;;5.65;100.00
49515;BME280;35415;47.870;16.058;2022-11-15T08:46:40;97286.72;;;5.70;100.00
49515;BME280;35415;47.870;16.058;2022-11-15T08:49:07;97289.53;;;5.75;100.00
49515;BME280;35415;47.870;16.058;2022-11-15T08:51:35;97287.75;;;5.81;100.00
49515;BME280;35415;47.870;16.058;2022-11-15T08:54:03;97279.59;;;5.87;100.00
49515;BME280;35415;47.870;16.058;2022-11-15T08:56:30;97281.63;;;5.92;100.00
49515;BME280;35415;47.870;16.058;2022-11-15T08:58:57;97279.28;;;5.95;100.00
49515;BME280;35415;47.870;16.058;2022-11-15T09:01:24;97277.28;;;6.02;100.00
49515;BME280;35415;47.870;16.058;2022-11-15T09:03:51;97288.06;;;6.08;100.00
49515;BME280;35415;47.870;16.058;2022-11-15T09:06:19;97276.66;;;6.12;100.00
49515;BME280;35415;47.870;16.058;2022-11-15T09:08:46;97277.56;;;6.18;100.00
49515;BME280;35415;47.870;16.058;2022-11-15T09:11:15;97262.81;;;6.15;100.00
49515;BME280;35415;47.870;16.058;2022-11-15T09:13:45;97275.91;;;6.28;100.00
49515;BME280;35415;47.870;16.058;2022-11-15T09:16:12;97267.41;;;6.31;100.00
49515;BME280;35415;47.870;16.058;2022-11-15T09:18:40;97262.13;;;6.37;100.00
49515;BME280;35415;47.870;16.058;2022-11-15T09:21:09;97247.66;;;6.32;100.00
49515;BME280;35415;47.870;16.058;2022-11-15T09:23:36;97266.06;;;6.46;100.00
49515;BME280;35415;47.870;16.058;2022-11-15T09:26:05;97259.72;;;6.52;100.00
49515;BME280;35415;47.870;16.058;2022-11-15T09:28:34;97268.09;;;6.55;100.00
49515;BME280;35415;47.870;16.058;2022-11-15T09:31:03;97259.59;;;6.58;100.00
49515;BME280;35415;47.870;16.058;2022-11-15T09:33:31;97258.06;;;6.62;100.00
49515;BME280;35415;47.870;16.058;2022-11-15T09:36:00;97255.69;;;6.66;100.00
49515;BME280;35415;47.870;16.058;2022-11-15T09:38:28;97245.06;;;6.71;100.00
49515;BME280;35415;47.870;16.058;2022-11-15T09:41:13;97250.53;;;6.76;100.00
49515;BME280;35415;47.870;16.058;2022-11-15T09:43:53;97241.22;;;6.79;100.00
49515;BME280;35415;47.870;16.058;2022-11-15T09:46:33;97225.72;;;6.81;100.00
49515;BME280;35415;47.870;16.058;2022-11-15T09:49:04;97231.69;;;6.88;100.00
49515;BME280;35415;47.870;16.058;2022-11-15T09:51:34;97228.00;;;6.89;100.00
49515;BME280;35415;47.870;16.058;2022-11-15T09:54:21;97228.88;;;6.94;100.00
49515;BME280;35415;47.870;16.058;2022-11-15T09:56:52;97214.84;;;6.87;100.00
49515;BME280;35415;47.870;16.058;2022-11-15T09:59:40;97227.41;;;7.04;100.00
49515;BME280;35415;47.870;16.058;2022-11-15T10:02:23;97229.59;;;7.07;100.00
49515;BME280;35415;47.870;16.058;2022-11-15T10:04:54;97211.44;;;7.09;100.00
49515;BME280;35415;47.870;16.058;2022-11-15T10:07:27;97212.00;;;7.11;100.00
49515;BME280;35415;47.870;16.058;2022-11-15T10:09:58;97198.88;;;7.09;100.00
49515;BME280;35415;47.870;16.058;2022-11-15T10:12:29;97191.22;;;7.18;100.00
49515;BME280;35415;47.870;16.058;2022-11-15T10:15:03;97198.75;;;7.21;100.00
49515;BME280;35415;47.870;16.058;2022-11-15T10:17:45;97197.47;;;7.23;100.00
49515;BME280;35415;47.870;16.058;2022-11-15T10:20:21;97192.94;;;7.24;100.00
49515;BME280;35415;47.870;16.058;2022-11-15T10:22:50;97195.66;;;7.29;100.00
49515;BME280;35415;47.870;16.058;2022-11-15T10:25:21;97185.50;;;7.31;100.00
49515;BME280;35415;47.870;16.058;2022-11-15T10:27:54;97192.22;;;7.34;100.00
49515;BME280;35415;47.870;16.058;2022-11-15T10:30:28;97181.28;;;7.35;100.00
49515;BME280;35415;47.870;16.058;2022-11-15T10:32:56;97179.97;;;7.38;100.00
49515;BME280;35415;47.870;16.058;2022-11-15T10:35:25;97184.03;;;7.40;100.00
49515;BME280;35415;47.870;16.058;2022-11-15T10:38:04;97164.00;;;7.43;100.00
49515;BME280;35415;47.870;16.058;2022-11-15T10:40:33;97160.00;;;7.45;100.00
49515;BME280;35415;47.870;16.058;2022-11-15T10:43:10;97153.34;;;7.48;100.00
49515;BME280;35415;47.870;16.058;2022-11-15T10:45:41;97140.72;;;7.43;100.00
49515;BME280;35415;47.870;16.058;2022-11-15T10:48:24;97141.06;;;7.52;100.00
49515;BME280;35415;47.870;16.058;2022-11-15T10:50:52;97145.91;;;7.55;100.00
49515;BME280;35415;47.870;16.058;2022-11-15T10:53:28;97146.50;;;7.57;100.00
49515;BME280;35415;47.870;16.058;2022-11-15T10:56:00;97142.50;;;7.60;100.00
49515;BME280;35415;47.870;16.058;2022-11-15T10:58:37;97111.59;;;7.47;100.00
49515;BME280;35415;47.870;16.058;2022-11-15T11:01:15;97134.53;;;7.65;100.00
49515;BME280;35415;47.870;16.058;2022-11-15T11:03:44;97136.13;;;7.66;100.00
49515;BME280;35415;47.870;16.058;2022-11-15T11:06:13;97128.66;;;7.68;100.00
49515;BME280;35415;47.870;16.058;2022-11-15T11:08:54;97120.94;;;7.71;100.00
49515;BME280;35415;47.870;16.058;2022-11-15T11:11:21;97113.69;;;7.72;100.00
49515;BME280;35415;47.870;16.058;2022-11-15T11:13:49;97113.22;;;7.75;100.00
49515;BME280;35415;47.870;16.058;2022-11-15T11:16:32;97111.91;;;7.77;100.00
49515;BME280;35415;47.870;16.058;2022-11-15T11:19:08;97094.78;;;7.78;100.00
49515;BME280;35415;47.870;16.058;2022-11-15T11:21:57;97095.84;;;7.77;100.00
49515;BME280;35415;47.870;16.058;2022-11-15T11:24:32;97098.00;;;7.80;100.00
49515;BME280;35415;47.870;16.058;2022-11-15T11:27:21;97087.81;;;7.77;100.00
49515;BME280;35415;47.870;16.058;2022-11-15T11:30:03;97095.88;;;7.82;100.00
49515;BME280;35415;47.870;16.058;2022-11-15T11:32:45;97081.38;;;7.78;100.00
49515;BME280;35415;47.870;16.058;2022-11-15T11:35:20;97089.19;;;7.85;100.00
49515;BME280;35415;47.870;16.058;2022-11-15T11:37:52;97089.47;;;7.83;100.00
49515;BME280;35415;47.870;16.058;2022-11-15T11:40:28;97088.41;;;7.84;100.00
49515;BME280;35415;47.870;16.058;2022-11-15T11:43:00;97043.47;;;7.60;100.00
49515;BME280;35415;47.870;16.058;2022-11-15T11:46:12;97058.38;;;7.82;100.00
49515;BME280;35415;47.870;16.058;2022-11-15T11:48:47;97061.63;;;7.84;100.00
49515;BME280;35415;47.870;16.058;2022-11-15T11:51:20;97062.44;;;7.85;100.00
49515;BME280;35415;47.870;16.058;2022-11-15T11:53:55;97056.00;;;7.86;100.00
49515;BME280;35415;47.870;16.058;2022-11-15T11:56:27;97054.38;;;7.85;100.00
49515;BME280;35415;47.870;16.058;2022-11-15T11:59:00;97053.06;;;7.88;100.00
49515;BME280;35415;47.870;16.058;2022-11-15T12:01:33;97047.72;;;7.88;100.00
49515;BME280;35415;47.870;16.058;2022-11-15T12:04:05;97038.25;;;7.75;100.00
49515;BME280;35415;47.870;16.058;2022-11-15T12:06:40;97029.19;;;7.81;100.00
49515;BME280;35415;47.870;16.058;2022-11-15T12:09:14;97035.94;;;7.89;100.00
49515;BME280;35415;47.870;16.058;2022-11-15T12:11:59;97037.31;;;7.91;100.00
49515;BME280;35415;47.870;16.058;2022-11-15T12:14:32;97026.63;;;7.91;100.00
49515;BME280;35415;47.870;16.058;2022-11-15T12:17:00;97029.28;;;7.91;100.00
49515;BME280;35415;47.870;16.058;2022-11-15T12:19:30;97023.13;;;7.91;100.00
49515;BME280;35415;47.870;16.058;2022-11-15T12:22:03;97004.84;;;7.82;100.00
49515;BME280;35415;47.870;16.058;2022-11-15T12:24:39;96993.84;;;7.79;100.00
49515;BME280;35415;47.870;16.058;2022-11-15T12:27:15;97006.81;;;7.92;100.00
49515;BME280;35415;47.870;16.058;2022-11-15T12:29:48;97003.31;;;7.92;100.00
49515;BME280;35415;47.870;16.058;2022-11-15T12:32:25;96999.56;;;7.93;100.00
49515;BME280;35415;47.870;16.058;2022-11-15T12:34:55;96996.91;;;7.93;100.00
49515;BME280;35415;47.870;16.058;2022-11-15T12:37:48;96995.56;;;7.95;100.00
49515;BME280;35415;47.870;16.058;2022-11-15T12:45:46;96979.50;;;7.95;100.00
49515;BME280;35415;47.870;16.058;2022-11-15T12:57:46;96976.56;;;7.97;100.00
49515;BME280;35415;47.870;16.058;2022-11-15T13:00:43;96973.38;;;8.00;100.00
49515;BME280;35415;47.870;16.058;2022-11-15T13:03:25;96979.78;;;7.99;100.00
49515;BME280;35415;47.870;16.058;2022-11-15T13:06:08;96969.34;;;7.97;100.00
49515;BME280;35415;47.870;16.058;2022-11-15T13:08:39;96962.38;;;7.96;100.00
49515;BME280;35415;47.870;16.058;2022-11-15T13:14:39;96966.13;;;8.00;100.00
49515;BME280;35415;47.870;16.058;2022-11-15T13:20:20;96955.41;;;7.95;100.00
49515;BME280;35415;47.870;16.058;2022-11-15T13:22:49;96955.13;;;7.97;100.00
49515;BME280;35415;47.870;16.058;2022-11-15T13:25:46;96953.81;;;7.99;100.00
49515;BME280;35415;47.870;16.058;2022-11-15T13:28:22;96954.88;;;7.98;100.00
49515;BME280;35415;47.870;16.058;2022-11-15T13:30:53;96921.84;;;7.82;100.00
49515;BME280;35415;47.870;16.058;2022-11-15T13:33:24;96942.28;;;7.99;100.00